Terminal Aerodrome Forecast
Issued by NWS Lake Charles, LA

Home | Current Version | Previous Version | Text Only | Print | Product List | Glossary On
Versions: 1 2 3 4 5 6 7 8 9 10 11 12 13 14 15 16 17 18 19 20 21 22
000
FTUS44 KLCH 251842 AAB
TAFARA
TAF AMD
KARA 251842Z 2519/2618 15013G21KT P6SM -RA VCTS FEW025 OVC100CB
      TEMPO 2519/2522 3SM TSRA OVC025CB
     FM252200 21010KT P6SM VCTS BKN035CB
     FM260100 VRB03KT 4SM BR OVC015
     FM261500 VRB03KT P6SM SCT020=

USA.gov is the U.S. government's official web portal to all federal, state and local government web resources and services.